Vidfoss — V2QK4 — position and weather

sailwx.info

Track history (hours):
 
Tides and Currents Weather Stations Pressure Air Temp Water Temp Dewpoint Dewpoint Depression Visibility Wind Speed Wind Dir Waves Ship Positions

Vidfoss

Last reported at 2017-Oct-20 13:55 UTC. Time now 2017-Nov-21 17:38 UTC.
Position N 69°38' E 018°57'.
Warning: this ship's position is 32 days out of date.

Length 93 m; draft 4.8 m.

Type: Cargo ship. MMSI: 305846000.

Date/timePositionNaut miles runAvg speedWind from/ knotsBaromVisibWave heightAir tempDewpointWater temp
2017-Oct-20 13:55N 69°38' E 018°57'0 0.0
2017-Oct-20 13:30N 69°38' E 018°57'1 1.5
2017-Oct-20 13:00N 69°38' E 018°57'611.0
2017-Oct-20 12:30N 69°43' E 019°03'510.8
2017-Oct-20 12:00N 69°47' E 019°15'611.6
2017-Oct-20 11:30N 69°49' E 019°31'611.6
2017-Oct-20 11:00N 69°51' E 019°46'611.6
2017-Oct-20 10:30N 69°55' E 019°58'611.7
2017-Oct-20 10:00N 69°59' E 020°12'611.7
2017-Oct-20 09:29N 70°01' E 020°28'611.9
2017-Oct-20 09:00N 70°02' E 020°45'611.4
2017-Oct-20 08:29N 70°06' E 020°58'611.7
2017-Oct-20 08:00N 70°11' E 021°05'611.5
2017-Oct-20 07:31N 70°16' E 021°15'612.1
2017-Oct-20 07:00N 70°20' E 021°29'612.3
2017-Oct-20 06:30N 70°24' E 021°42'611.8
2017-Oct-20 06:00N 70°26' E 021°59'611.6
2017-Oct-20 05:30N 70°27' E 022°16'611.6
2017-Oct-20 05:01N 70°28' E 022°32'612.1
2017-Oct-20 04:30N 70°30' E 022°50'511.2
2017-Oct-20 04:00N 70°33' E 023°04'610.8
2017-Oct-20 03:30N 70°37' E 023°15'510.9
2017-Oct-20 03:00N 70°41' E 023°27'510.9
2017-Oct-20 02:30N 70°45' E 023°37'611.2
2017-Oct-20 02:00N 70°49' E 023°49'611.8
2017-Oct-20 01:30N 70°53' E 024°03'510.7
2017-Oct-20 01:00N 70°56' E 024°15'611.4
2017-Oct-20 00:30N 71°00' E 024°28'5 9.6
2017-Oct-20 00:00N 71°01' E 024°42'511.1
2017-Oct-19 23:30N 70°59' E 024°58'611.2
2017-Oct-19 23:00N 70°59' E 025°16'5 9.8
2017-Oct-19 22:31N 70°57' E 025°29'510.1
2017-Oct-19 22:00N 70°56' E 025°44'611.6
2017-Oct-19 21:31N 70°57' E 026°01'611.5
2017-Oct-19 21:00N 70°59' E 026°18'612.1
2017-Oct-19 20:30N 71°01' E 026°35'612.2
2017-Oct-19 20:00N 71°03' E 026°53'612.4
2017-Oct-19 19:30N 71°06' E 027°11'612.4
2017-Oct-19 19:00N 71°08' E 027°29'611.8
2017-Oct-19 18:29N 71°09' E 027°47'611.6
2017-Oct-19 18:00N 71°09' E 028°04'611.1
2017-Oct-19 17:30N 71°08' E 028°21'510.8
2017-Oct-19 17:00N 71°06' E 028°37'510.9
2017-Oct-19 16:30N 71°04' E 028°52'510.9
2017-Oct-19 16:00N 71°02' E 029°07'510.9
2017-Oct-19 15:30N 70°59' E 029°22'510.4
2017-Oct-19 15:00N 70°56' E 029°35'510.6
2017-Oct-19 14:30N 70°53' E 029°46'510.4
2017-Oct-19 14:00N 70°50' E 029°60'510.0
2017-Oct-19 13:30N 70°46' E 030°10'5 9.8
2017-Oct-19 13:00N 70°43' E 030°21'510.0
2017-Oct-19 12:29N 70°40' E 030°34'5 9.9
2017-Oct-19 11:59N 70°37' E 030°46'5 9.6
2017-Oct-19 11:30N 70°34' E 030°56'5 9.6
2017-Oct-19 11:00N 70°30' E 031°07'510.0
2017-Oct-19 10:30N 70°27' E 031°18'510.5
2017-Oct-19 10:00N 70°23' E 031°29'510.7
2017-Oct-19 09:31N 70°20' E 031°41'510.3
2017-Oct-19 09:00N 70°17' E 031°54'78 7.7
2017-Oct-18 22:52N 69°03' E 033°04'2 6.5
2017-Oct-18 22:31N 69°01' E 033°03'3 5.9
2017-Oct-18 22:01N 68°58' E 033°03'0 0.0
2017-Oct-18 21:30N 68°58' E 033°03'0 0.0
2017-Oct-18 21:01N 68°58' E 033°03'0 0.0
2017-Oct-18 20:31N 68°58' E 033°03'0 0.0
2017-Oct-18 20:01N 68°58' E 033°03'0 0.0
2017-Oct-18 19:31N 68°58' E 033°03'0 0.0
2017-Oct-18 19:01N 68°58' E 033°03'0 0.0
2017-Oct-18 18:31N 68°58' E 033°03'0 0.0
2017-Oct-18 18:01N 68°58' E 033°03'0 0.0
2017-Oct-18 17:31N 68°58' E 033°03'0 0.0
2017-Oct-18 17:01N 68°58' E 033°03'0 0.0
2017-Oct-18 16:31N 68°58' E 033°03'0 0.0
2017-Oct-18 16:01N 68°58' E 033°03'0 0.4
2017-Oct-18 15:31N 68°58' E 033°02'2 3.0
2017-Oct-18 15:00N 68°56' E 033°02'0 0.0
2017-Oct-18 14:01N 68°56' E 033°02'0 0.0
2017-Oct-18 13:31N 68°56' E 033°02'0 0.0
2017-Oct-18 13:01N 68°56' E 033°02'0 0.0
2017-Oct-18 12:30N 68°56' E 033°02'0 0.0
2017-Oct-18 12:01N 68°56' E 033°02'0 0.0
2017-Oct-18 11:31N 68°56' E 033°02'0 0.0
2017-Oct-18 11:01N 68°56' E 033°02'0 0.0
2017-Oct-18 10:31N 68°56' E 033°02'0 0.0
2017-Oct-18 10:01N 68°56' E 033°02'0 0.0
2017-Oct-18 09:31N 68°56' E 033°02'0 0.0
2017-Oct-18 09:01N 68°56' E 033°02'0 0.0
2017-Oct-18 08:30N 68°56' E 033°02'0 0.0
2017-Oct-18 08:01N 68°56' E 033°02'0 0.0
2017-Oct-18 07:31N 68°56' E 033°02'0 0.0
2017-Oct-18 07:01N 68°56' E 033°02'0 0.0
2017-Oct-18 06:30N 68°56' E 033°02'0 0.0
2017-Oct-18 06:01N 68°56' E 033°02'0 0.0
2017-Oct-18 05:31N 68°56' E 033°02'0 0.0
2017-Oct-18 05:01N 68°56' E 033°02'0 0.0
2017-Oct-18 04:30N 68°56' E 033°02'0 0.0
2017-Oct-18 04:01N 68°56' E 033°02'0 0.0
2017-Oct-18 03:30N 68°56' E 033°02'0 0.0
2017-Oct-18 03:01N 68°56' E 033°02'0 0.0
2017-Oct-18 02:31N 68°56' E 033°02'0 0.0
2017-Oct-18 02:01N 68°56' E 033°02'0 0.0
2017-Oct-18 01:31N 68°56' E 033°02'0 0.0
2017-Oct-18 01:01N 68°56' E 033°02'0 0.0
2017-Oct-18 00:31N 68°56' E 033°02'0 0.0
2017-Oct-18 00:00N 68°56' E 033°02'0 0.0
2017-Oct-17 23:31N 68°56' E 033°02'0 0.0
2017-Oct-17 23:01N 68°56' E 033°02'0 0.0
2017-Oct-17 22:31N 68°56' E 033°02'0 0.0
2017-Oct-17 22:01N 68°56' E 033°02'0 0.0
2017-Oct-17 21:30N 68°56' E 033°02'0 0.0
2017-Oct-17 21:01N 68°56' E 033°02'0 0.0
2017-Oct-17 20:31N 68°56' E 033°02'0 0.0
2017-Oct-17 20:00N 68°56' E 033°02'0 0.0
2017-Oct-17 19:31N 68°56' E 033°02'0 0.0
2017-Oct-17 19:01N 68°56' E 033°02'0 0.0
2017-Oct-17 18:30N 68°56' E 033°02'0 0.0
2017-Oct-17 18:01N 68°56' E 033°02'0 0.0
2017-Oct-17 17:31N 68°56' E 033°02'0 0.0
2017-Oct-17 17:01N 68°56' E 033°02'0 0.0
2017-Oct-17 16:31N 68°56' E 033°02'0 0.0
2017-Oct-17 16:01N 68°56' E 033°02'0 0.0
2017-Oct-17 15:31N 68°56' E 033°02'0 0.0
2017-Oct-17 15:01N 68°56' E 033°02'0 0.0
2017-Oct-17 14:31N 68°56' E 033°02'0 0.0
2017-Oct-17 14:01N 68°56' E 033°02'0 0.0
2017-Oct-17 13:30N 68°56' E 033°02'0 0.0
2017-Oct-17 13:01N 68°56' E 033°02'0 0.0
2017-Oct-17 12:31N 68°56' E 033°02'0 0.0
2017-Oct-17 12:01N 68°56' E 033°02'0 0.0
2017-Oct-17 11:31N 68°56' E 033°02'0 0.0
2017-Oct-17 11:01N 68°56' E 033°02'0 0.0
2017-Oct-17 10:31N 68°56' E 033°02'0 0.0
2017-Oct-17 10:01N 68°56' E 033°02'0 0.0
2017-Oct-17 09:31N 68°56' E 033°02'0 0.0
2017-Oct-17 09:01N 68°56' E 033°02'0 0.0
2017-Oct-17 08:31N 68°56' E 033°02'0 0.0
2017-Oct-17 08:01N 68°56' E 033°02'0 0.0
2017-Oct-17 07:31N 68°56' E 033°02'0 0.0
2017-Oct-17 07:01N 68°56' E 033°02'0 0.0
2017-Oct-17 06:31N 68°56' E 033°02'0 0.0
2017-Oct-17 06:01N 68°56' E 033°02'0 0.0
2017-Oct-17 05:31N 68°56' E 033°02'0 0.0
2017-Oct-17 05:01N 68°56' E 033°02'0 0.0
2017-Oct-17 04:30N 68°56' E 033°02'0 0.0
2017-Oct-17 04:01N 68°56' E 033°02'0 0.0
2017-Oct-17 03:31N 68°56' E 033°02'0 0.0
2017-Oct-17 03:01N 68°56' E 033°02'0 0.0
2017-Oct-17 02:31N 68°56' E 033°02'0 0.0
2017-Oct-17 02:01N 68°56' E 033°02'0 0.0
2017-Oct-17 01:31N 68°56' E 033°02'0 0.0
2017-Oct-17 01:01N 68°56' E 033°02'0 0.0
2017-Oct-17 00:31N 68°56' E 033°02'0 0.0
2017-Oct-17 00:00N 68°56' E 033°02'0 0.0
2017-Oct-16 23:31N 68°56' E 033°02'0 0.0
2017-Oct-16 23:01N 68°56' E 033°02'0 0.0
2017-Oct-16 22:31N 68°56' E 033°02'0 0.0
2017-Oct-16 22:01N 68°56' E 033°02'0 0.0
2017-Oct-16 21:31N 68°56' E 033°02'0 0.0
2017-Oct-16 21:01N 68°56' E 033°02'0 0.0
2017-Oct-16 20:30N 68°56' E 033°02'0 0.0
2017-Oct-16 20:01N 68°56' E 033°02'0 0.0
2017-Oct-16 19:30N 68°56' E 033°02'0 0.0
2017-Oct-16 19:01N 68°56' E 033°02'0 0.0
2017-Oct-16 18:31N 68°56' E 033°02'0 0.0
2017-Oct-16 18:00N 68°56' E 033°02'0 0.0
2017-Oct-16 17:31N 68°56' E 033°02'0 0.0
2017-Oct-16 17:01N 68°56' E 033°02'0 0.0
2017-Oct-16 16:31N 68°56' E 033°02'0 0.0
2017-Oct-16 16:01N 68°56' E 033°02'0 0.0
2017-Oct-16 15:31N 68°56' E 033°02'0 0.0
2017-Oct-16 15:01N 68°56' E 033°02'0 0.0
2017-Oct-16 14:31N 68°56' E 033°02'0 0.0
2017-Oct-16 13:30N 68°56' E 033°02'0 0.0
2017-Oct-16 13:01N 68°56' E 033°02'0 0.0
2017-Oct-16 12:31N 68°56' E 033°02'0 0.0
2017-Oct-16 12:01N 68°56' E 033°02'0 0.0
2017-Oct-16 11:30N 68°56' E 033°02'0 0.0
2017-Oct-16 11:00N 68°56' E 033°02'0 0.0
2017-Oct-16 10:31N 68°56' E 033°02'0 0.0
2017-Oct-16 10:01N 68°56' E 033°02'0 0.0
2017-Oct-16 09:30N 68°56' E 033°02'0 0.0
2017-Oct-16 09:01N 68°56' E 033°02'0 0.0
2017-Oct-16 08:31N 68°56' E 033°02'0 0.0
2017-Oct-16 08:01N 68°56' E 033°02'0 0.0
2017-Oct-16 07:31N 68°56' E 033°02'0 0.0
2017-Oct-16 07:01N 68°56' E 033°02'0 0.0
2017-Oct-16 06:31N 68°56' E 033°02'0 0.0
2017-Oct-16 06:01N 68°56' E 033°02'0 0.2
2017-Oct-16 05:31N 68°56' E 033°01'2 4.6
2017-Oct-16 05:01N 68°59' E 033°02'3 5.6
2017-Oct-16 04:31N 69°02' E 033°03'79 9.0
2017-Oct-15 19:45N 70°17' E 031°54'312.1
2017-Oct-15 19:30N 70°19' E 031°47'612.1
2017-Oct-15 19:00N 70°22' E 031°32'611.4
2017-Oct-15 18:30N 70°25' E 031°18'611.2
2017-Oct-15 18:00N 70°28' E 031°05'611.4
2017-Oct-15 17:30N 70°32' E 030°52'611.4
2017-Oct-15 17:00N 70°36' E 030°39'611.3
2017-Oct-15 16:31N 70°40' E 030°26'510.8
2017-Oct-15 16:00N 70°43' E 030°13'611.2
2017-Oct-15 15:30N 70°46' E 029°58'611.4
2017-Oct-15 15:00N 70°49' E 029°44'1211.7
2017-Oct-15 14:01N 70°55' E 029°15'611.4
2017-Oct-15 13:30N 70°58' E 028°59'611.4
2017-Oct-15 13:00N 71°01' E 028°44'611.5
2017-Oct-15 12:30N 71°04' E 028°30'611.9
2017-Oct-15 12:00N 71°08' E 028°14'611.9
2017-Oct-15 11:30N 71°08' E 027°56'612.4
2017-Oct-15 11:00N 71°09' E 027°37'612.6
2017-Oct-15 10:30N 71°07' E 027°18'612.3
2017-Oct-15 10:01N 71°05' E 027°01'611.8
2017-Oct-15 09:30N 71°03' E 026°44'611.8
2017-Oct-15 09:00N 71°00' E 026°27'611.8
2017-Oct-15 08:30N 70°58' E 026°10'611.9
2017-Oct-15 08:00N 70°57' E 025°52'612.1
2017-Oct-15 07:30N 70°56' E 025°34'612.3
2017-Oct-15 07:00N 70°59' E 025°19'611.3
2017-Oct-15 06:30N 70°59' E 025°02'511.0
2017-Oct-15 06:00N 71°01' E 024°45'510.4
2017-Oct-15 05:30N 71°01' E 024°29'612.1
2017-Oct-15 05:00N 70°56' E 024°16'612.1
2017-Oct-15 04:30N 70°52' E 024°02'612.1
2017-Oct-15 04:00N 70°48' E 023°48'612.4
2017-Oct-15 03:30N 70°44' E 023°35'612.4
2017-Oct-15 03:01N 70°40' E 023°23'712.8
2017-Oct-15 02:30N 70°35' E 023°09'612.6
2017-Oct-15 02:00N 70°31' E 022°55'611.8
2017-Oct-15 01:30N 70°28' E 022°39'511.2
2017-Oct-15 01:01N 70°27' E 022°23'611.6
2017-Oct-15 00:31N 70°26' E 022°05'611.8
2017-Oct-15 00:01N 70°25' E 021°49'611.6
2017-Oct-14 23:30N 70°21' E 021°34'611.9
2017-Oct-14 23:01N 70°17' E 021°21'712.0
2017-Oct-14 22:27N 70°13' E 021°07'612.3
2017-Oct-14 21:57N 70°07' E 021°01'512.1
2017-Oct-14 21:31N 70°03' E 020°50'612.5
2017-Oct-14 21:01N 70°01' E 020°32'612.2
2017-Oct-14 20:30N 69°59' E 020°15'612.3
2017-Oct-14 20:00N 69°55' E 020°01'612.3
2017-Oct-14 19:30N 69°51' E 019°47'612.4
2017-Oct-14 19:01N 69°49' E 019°31'612.5
2017-Oct-14 18:30N 69°47' E 019°14'611.3
2017-Oct-14 18:00N 69°42' E 019°03'4 7.1
2017-Oct-14 17:30N 69°39' E 018°58'0 0.0
2017-Oct-14 17:01N 69°39' E 018°58'0 0.0
2017-Oct-14 16:31N 69°39' E 018°58'0 0.0
2017-Oct-14 16:00N 69°39' E 018°58'0 0.0
2017-Oct-14 15:30N 69°39' E 018°58'0 0.0
2017-Oct-14 15:01N 69°39' E 018°58'0 0.0
2017-Oct-14 14:31N 69°39' E 018°58'0 0.0
2017-Oct-14 14:00N 69°39' E 018°58'0 0.0
2017-Oct-14 13:30N 69°39' E 018°58'0 0.6
2017-Oct-14 13:00N 69°39' E 018°59'2 4.0
2017-Oct-14 12:30N 69°38' E 018°57'0 0.0
2017-Oct-14 12:00N 69°38' E 018°57'0 0.0
2017-Oct-14 11:30N 69°38' E 018°57'0 0.0
2017-Oct-14 11:00N 69°38' E 018°57'0 0.0
2017-Oct-14 10:30N 69°38' E 018°57'0 0.0
2017-Oct-14 10:00N 69°38' E 018°57'0 0.0
2017-Oct-14 09:31N 69°38' E 018°57'0 0.0
2017-Oct-14 09:00N 69°38' E 018°57'0 0.0
2017-Oct-14 08:30N 69°38' E 018°57'0 0.0
2017-Oct-14 08:01N 69°38' E 018°57'0 0.1
2017-Oct-14 07:30N 69°38' E 018°57'0 0.0
2017-Oct-14 07:00N 69°38' E 018°57'0 0.2
2017-Oct-14 06:30N 69°38' E 018°57'4 8.2
2017-Oct-14 05:59N 69°34' E 018°49'713.7
2017-Oct-14 05:30N 69°32' E 018°31'612.9
2017-Oct-14 05:00N 69°29' E 018°14'611.4
2017-Oct-14 04:30N 69°24' E 018°07'611.9
2017-Oct-14 04:00N 69°19' E 017°59'612.4
2017-Oct-14 03:30N 69°13' E 017°58'5 9.5
2017-Oct-14 03:00N 69°09' E 017°51'612.9
2017-Oct-14 02:30N 69°07' E 017°33'612.5
2017-Oct-14 01:59N 69°03' E 017°19'612.2
2017-Oct-14 01:30N 68°59' E 017°07'713.1
2017-Oct-14 01:00N 68°56' E 016°51'612.9
2017-Oct-14 00:30N 68°52' E 016°36'611.5
2017-Oct-14 00:00N 68°54' E 016°21'611.7
2017-Oct-13 23:30N 68°57' E 016°07'611.9
2017-Oct-13 23:00N 68°59' E 015°51'510.2
2017-Oct-13 22:31N 68°58' E 015°37'612.5
2017-Oct-13 22:00N 68°52' E 015°30'712.8
2017-Oct-13 21:30N 68°45' E 015°25'3 7.0
2017-Oct-13 21:00N 68°42' E 015°25'0 0.0
2017-Oct-13 20:30N 68°42' E 015°25'0 0.0
2017-Oct-13 20:00N 68°42' E 015°25'0 0.0
2017-Oct-13 19:30N 68°42' E 015°25'3 6.0
2017-Oct-13 19:00N 68°39' E 015°24'612.7
2017-Oct-13 18:30N 68°35' E 015°11'611.4
2017-Oct-13 18:00N 68°29' E 015°13'612.2
2017-Oct-13 17:30N 68°24' E 015°06'612.2
2017-Oct-13 17:00N 68°18' E 014°58'612.2
2017-Oct-13 16:30N 68°12' E 014°54'611.9
2017-Oct-13 16:00N 68°07' E 014°47'612.1
2017-Oct-13 15:30N 68°02' E 014°39'612.5
2017-Oct-13 15:00N 67°57' E 014°30'612.5
2017-Oct-13 14:30N 67°51' E 014°21'612.3
2017-Oct-13 14:00N 67°46' E 014°14'612.6
2017-Oct-13 13:30N 67°40' E 014°16'612.6
2017-Oct-13 13:00N 67°33' E 014°20'612.8
2017-Oct-13 12:30N 67°27' E 014°24'611.6
2017-Oct-13 12:00N 67°22' E 014°23'612.7
2017-Oct-13 11:30N 67°16' E 014°13'612.7
2017-Oct-13 11:00N 67°11' E 014°05'612.6
2017-Oct-13 10:30N 67°05' E 013°57'612.2
2017-Oct-13 10:00N 67°01' E 013°45'612.2
2017-Oct-13 09:30N 66°58' E 013°32'510.8
2017-Oct-13 09:00N 66°53' E 013°33'4 5.2
2017-Oct-13 08:17N 66°52' E 013°42'21 3.1
2017-Oct-13 01:17N 66°37' E 013°04'810.6
2017-Oct-13 00:31N 66°29' E 012°59'012.7
2017-Oct-13 00:29N 66°28' E 012°59'612.5
2017-Oct-13 00:00N 66°22' E 012°58'912.5
2017-Oct-12 23:18N 66°14' E 012°53'412.5
2017-Oct-12 22:57N 66°10' E 012°50'1112.5
2017-Oct-12 22:07N 66°02' E 012°34'212.8
2017-Oct-12 21:57N 65°60' E 012°30'4411.7
2017-Oct-12 18:09N 65°17' E 011°58'212.4
2017-Oct-12 18:00N 65°16' E 011°57'1112.5
2017-Oct-12 17:09N 65°06' E 011°48'212.5
2017-Oct-12 17:00N 65°04' E 011°46'611.8
2017-Oct-12 16:30N 64°60' E 011°37'612.1
2017-Oct-12 16:00N 64°56' E 011°26'612.5
2017-Oct-12 15:30N 64°52' E 011°15'612.6
2017-Oct-12 15:00N 64°47' E 011°04'612.3
2017-Oct-12 14:30N 64°43' E 010°53'612.2
2017-Oct-12 14:00N 64°39' E 010°43'611.9
2017-Oct-12 13:30N 64°35' E 010°34'611.5
2017-Oct-12 13:00N 64°31' E 010°24'612.1
2017-Oct-12 12:30N 64°26' E 010°14'612.3
2017-Oct-12 12:00N 64°22' E 010°04'612.7
2017-Oct-12 11:30N 64°17' E 009°54'612.8
2017-Oct-12 11:00N 64°13' E 009°44'612.1
2017-Oct-12 10:30N 64°07' E 009°43'612.3
2017-Oct-12 10:00N 64°01' E 009°46'612.3
2017-Oct-12 09:29N 63°54' E 009°46'612.1
2017-Oct-12 09:00N 63°50' E 009°37'1 2.0
2017-Oct-12 08:30N 63°49' E 009°38'0 0.0
2017-Oct-12 08:00N 63°49' E 009°38'0 0.0
2017-Oct-12 07:30N 63°49' E 009°38'0 0.4
2017-Oct-12 07:00N 63°49' E 009°38'2 4.3
2017-Oct-12 06:30N 63°48' E 009°34'4 8.2
2017-Oct-12 06:00N 63°44' E 009°36'0 0.0
2017-Oct-12 05:30N 63°44' E 009°36'0 0.0
2017-Oct-12 05:01N 63°44' E 009°36'0 0.0
2017-Oct-12 04:30N 63°44' E 009°36'1 1.1
2017-Oct-12 04:00N 63°44' E 009°35'1 2.1
2017-Oct-12 03:30N 63°44' E 009°33'2 4.3
2017-Oct-12 03:00N 63°42' E 009°31'2 4.2
2017-Oct-12 02:31N 63°40' E 009°29'3 5.4
2017-Oct-12 02:00N 63°38' E 009°28'4 8.7
2017-Oct-12 01:30N 63°34' E 009°22'510.1
2017-Oct-12 01:00N 63°32' E 009°12'510.6
2017-Oct-12 00:30N 63°29' E 009°02'5 9.8
2017-Oct-12 00:00N 63°27' E 008°52'5 9.7
2017-Oct-11 23:30N 63°26' E 008°42'5 9.8
2017-Oct-11 23:00N 63°24' E 008°31'5 9.6
2017-Oct-11 22:30N 63°21' E 008°23'510.3
2017-Oct-11 22:00N 63°18' E 008°14'510.2
2017-Oct-11 21:30N 63°15' E 008°04'5 9.7
2017-Oct-11 21:00N 63°13' E 007°55'5 9.7
2017-Oct-11 20:30N 63°11' E 007°45'5 9.4
2017-Oct-11 20:00N 63°08' E 007°37'510.2
2017-Oct-11 19:30N 63°05' E 007°28'612.5
2017-Oct-11 19:00N 63°03' E 007°15'612.4
2017-Oct-11 18:29N 63°00' E 007°02'612.4
2017-Oct-11 18:00N 62°57' E 006°50'613.0
2017-Oct-11 17:30N 62°52' E 006°42'612.9
2017-Oct-11 17:00N 62°46' E 006°34'84 4.9
2017-Oct-11 00:00N 61°35' E 005°00'0 0.0
2017-Oct-10 23:29N 61°35' E 005°00'0 0.0
2017-Oct-10 23:00N 61°35' E 005°00'0 0.0
2017-Oct-10 22:29N 61°35' E 005°00'1 2.7
2017-Oct-10 22:00N 61°34' E 004°58'611.2
2017-Oct-10 21:30N 61°29' E 004°59'611.4
2017-Oct-10 21:00N 61°23' E 005°01'510.0
2017-Oct-10 20:30N 61°18' E 005°01'5 9.6
2017-Oct-10 20:00N 61°14' E 004°56'611.4
2017-Oct-10 19:29N 61°09' E 005°01'611.5
2017-Oct-10 19:00N 61°03' E 004°58'611.9
2017-Oct-10 18:30N 60°60' E 004°48'611.2
2017-Oct-10 18:00N 60°54' E 004°46'611.4
2017-Oct-10 17:30N 60°49' E 004°44'611.9
2017-Oct-10 17:00N 60°43' E 004°48'612.4
2017-Oct-10 16:30N 60°37' E 004°53'612.8
2017-Oct-10 16:00N 60°31' E 004°57'712.8
2017-Oct-10 15:30N 60°25' E 005°03'510.8
2017-Oct-10 15:00N 60°21' E 005°10'1110.9
2017-Oct-10 13:59N 60°10' E 005°14'  
Track history (hours):
 
Tides and Currents Weather Stations Pressure Air Temp Water Temp Dewpoint Dewpoint Depression Visibility Wind Speed Wind Dir Waves Ship Positions

Vidfoss

Last reported at 2017-Oct-20 13:55 UTC. Time now 2017-Nov-21 17:38 UTC.
Position N 69°38' E 018°57'.
Warning: this ship's position is 32 days out of date.

Length 93 m; draft 4.8 m.

Type: Cargo ship. MMSI: 305846000.

Date/timePositionNaut miles runAvg speedWind from/ knotsBaromVisibWave heightAir tempDewpointWater temp
2017-Oct-20 13:55N 69°38' E 018°57'0 0.0
2017-Oct-20 13:30N 69°38' E 018°57'1 1.5
2017-Oct-20 13:00N 69°38' E 018°57'611.0
2017-Oct-20 12:30N 69°43' E 019°03'510.8
2017-Oct-20 12:00N 69°47' E 019°15'611.6
2017-Oct-20 11:30N 69°49' E 019°31'611.6
2017-Oct-20 11:00N 69°51' E 019°46'611.6
2017-Oct-20 10:30N 69°55' E 019°58'611.7
2017-Oct-20 10:00N 69°59' E 020°12'611.7
2017-Oct-20 09:29N 70°01' E 020°28'611.9
2017-Oct-20 09:00N 70°02' E 020°45'611.4
2017-Oct-20 08:29N 70°06' E 020°58'611.7
2017-Oct-20 08:00N 70°11' E 021°05'611.5
2017-Oct-20 07:31N 70°16' E 021°15'612.1
2017-Oct-20 07:00N 70°20' E 021°29'612.3
2017-Oct-20 06:30N 70°24' E 021°42'611.8
2017-Oct-20 06:00N 70°26' E 021°59'611.6
2017-Oct-20 05:30N 70°27' E 022°16'611.6
2017-Oct-20 05:01N 70°28' E 022°32'612.1
2017-Oct-20 04:30N 70°30' E 022°50'511.2
2017-Oct-20 04:00N 70°33' E 023°04'610.8
2017-Oct-20 03:30N 70°37' E 023°15'510.9
2017-Oct-20 03:00N 70°41' E 023°27'510.9
2017-Oct-20 02:30N 70°45' E 023°37'611.2
2017-Oct-20 02:00N 70°49' E 023°49'611.8
2017-Oct-20 01:30N 70°53' E 024°03'510.7
2017-Oct-20 01:00N 70°56' E 024°15'611.4
2017-Oct-20 00:30N 71°00' E 024°28'5 9.6
2017-Oct-20 00:00N 71°01' E 024°42'511.1
2017-Oct-19 23:30N 70°59' E 024°58'611.2
2017-Oct-19 23:00N 70°59' E 025°16'5 9.8
2017-Oct-19 22:31N 70°57' E 025°29'510.1
2017-Oct-19 22:00N 70°56' E 025°44'611.6
2017-Oct-19 21:31N 70°57' E 026°01'611.5
2017-Oct-19 21:00N 70°59' E 026°18'612.1
2017-Oct-19 20:30N 71°01' E 026°35'612.2
2017-Oct-19 20:00N 71°03' E 026°53'612.4
2017-Oct-19 19:30N 71°06' E 027°11'612.4
2017-Oct-19 19:00N 71°08' E 027°29'611.8
2017-Oct-19 18:29N 71°09' E 027°47'611.6
2017-Oct-19 18:00N 71°09' E 028°04'611.1
2017-Oct-19 17:30N 71°08' E 028°21'510.8
2017-Oct-19 17:00N 71°06' E 028°37'510.9
2017-Oct-19 16:30N 71°04' E 028°52'510.9
2017-Oct-19 16:00N 71°02' E 029°07'510.9
2017-Oct-19 15:30N 70°59' E 029°22'510.4
2017-Oct-19 15:00N 70°56' E 029°35'510.6
2017-Oct-19 14:30N 70°53' E 029°46'510.4
2017-Oct-19 14:00N 70°50' E 029°60'510.0
2017-Oct-19 13:30N 70°46' E 030°10'5 9.8
2017-Oct-19 13:00N 70°43' E 030°21'510.0
2017-Oct-19 12:29N 70°40' E 030°34'5 9.9
2017-Oct-19 11:59N 70°37' E 030°46'5 9.6
2017-Oct-19 11:30N 70°34' E 030°56'5 9.6
2017-Oct-19 11:00N 70°30' E 031°07'510.0
2017-Oct-19 10:30N 70°27' E 031°18'510.5
2017-Oct-19 10:00N 70°23' E 031°29'510.7
2017-Oct-19 09:31N 70°20' E 031°41'510.3
2017-Oct-19 09:00N 70°17' E 031°54'78 7.7
2017-Oct-18 22:52N 69°03' E 033°04'2 6.5
2017-Oct-18 22:31N 69°01' E 033°03'3 5.9
2017-Oct-18 22:01N 68°58' E 033°03'0 0.0
2017-Oct-18 21:30N 68°58' E 033°03'0 0.0
2017-Oct-18 21:01N 68°58' E 033°03'0 0.0
2017-Oct-18 20:31N 68°58' E 033°03'0 0.0
2017-Oct-18 20:01N 68°58' E 033°03'0 0.0
2017-Oct-18 19:31N 68°58' E 033°03'0 0.0
2017-Oct-18 19:01N 68°58' E 033°03'0 0.0
2017-Oct-18 18:31N 68°58' E 033°03'0 0.0
2017-Oct-18 18:01N 68°58' E 033°03'0 0.0
2017-Oct-18 17:31N 68°58' E 033°03'0 0.0
2017-Oct-18 17:01N 68°58' E 033°03'0 0.0
2017-Oct-18 16:31N 68°58' E 033°03'0 0.0
2017-Oct-18 16:01N 68°58' E 033°03'0 0.4
2017-Oct-18 15:31N 68°58' E 033°02'2 3.0
2017-Oct-18 15:00N 68°56' E 033°02'0 0.0
2017-Oct-18 14:01N 68°56' E 033°02'0 0.0
2017-Oct-18 13:31N 68°56' E 033°02'0 0.0
2017-Oct-18 13:01N 68°56' E 033°02'0 0.0
2017-Oct-18 12:30N 68°56' E 033°02'0 0.0
2017-Oct-18 12:01N 68°56' E 033°02'0 0.0
2017-Oct-18 11:31N 68°56' E 033°02'0 0.0
2017-Oct-18 11:01N 68°56' E 033°02'0 0.0
2017-Oct-18 10:31N 68°56' E 033°02'0 0.0
2017-Oct-18 10:01N 68°56' E 033°02'0 0.0
2017-Oct-18 09:31N 68°56' E 033°02'0 0.0
2017-Oct-18 09:01N 68°56' E 033°02'0 0.0
2017-Oct-18 08:30N 68°56' E 033°02'0 0.0
2017-Oct-18 08:01N 68°56' E 033°02'0 0.0
2017-Oct-18 07:31N 68°56' E 033°02'0 0.0
2017-Oct-18 07:01N 68°56' E 033°02'0 0.0
2017-Oct-18 06:30N 68°56' E 033°02'0 0.0
2017-Oct-18 06:01N 68°56' E 033°02'0 0.0
2017-Oct-18 05:31N 68°56' E 033°02'0 0.0
2017-Oct-18 05:01N 68°56' E 033°02'0 0.0
2017-Oct-18 04:30N 68°56' E 033°02'0 0.0
2017-Oct-18 04:01N 68°56' E 033°02'0 0.0
2017-Oct-18 03:30N 68°56' E 033°02'0 0.0
2017-Oct-18 03:01N 68°56' E 033°02'0 0.0
2017-Oct-18 02:31N 68°56' E 033°02'0 0.0
2017-Oct-18 02:01N 68°56' E 033°02'0 0.0
2017-Oct-18 01:31N 68°56' E 033°02'0 0.0
2017-Oct-18 01:01N 68°56' E 033°02'0 0.0
2017-Oct-18 00:31N 68°56' E 033°02'0 0.0
2017-Oct-18 00:00N 68°56' E 033°02'0 0.0
2017-Oct-17 23:31N 68°56' E 033°02'0 0.0
2017-Oct-17 23:01N 68°56' E 033°02'0 0.0
2017-Oct-17 22:31N 68°56' E 033°02'0 0.0
2017-Oct-17 22:01N 68°56' E 033°02'0 0.0
2017-Oct-17 21:30N 68°56' E 033°02'0 0.0
2017-Oct-17 21:01N 68°56' E 033°02'0 0.0
2017-Oct-17 20:31N 68°56' E 033°02'0 0.0
2017-Oct-17 20:00N 68°56' E 033°02'0 0.0
2017-Oct-17 19:31N 68°56' E 033°02'0 0.0
2017-Oct-17 19:01N 68°56' E 033°02'0 0.0
2017-Oct-17 18:30N 68°56' E 033°02'0 0.0
2017-Oct-17 18:01N 68°56' E 033°02'0 0.0
2017-Oct-17 17:31N 68°56' E 033°02'0 0.0
2017-Oct-17 17:01N 68°56' E 033°02'0 0.0
2017-Oct-17 16:31N 68°56' E 033°02'0 0.0
2017-Oct-17 16:01N 68°56' E 033°02'0 0.0
2017-Oct-17 15:31N 68°56' E 033°02'0 0.0
2017-Oct-17 15:01N 68°56' E 033°02'0 0.0
2017-Oct-17 14:31N 68°56' E 033°02'0 0.0
2017-Oct-17 14:01N 68°56' E 033°02'0 0.0
2017-Oct-17 13:30N 68°56' E 033°02'0 0.0
2017-Oct-17 13:01N 68°56' E 033°02'0 0.0
2017-Oct-17 12:31N 68°56' E 033°02'0 0.0
2017-Oct-17 12:01N 68°56' E 033°02'0 0.0
2017-Oct-17 11:31N 68°56' E 033°02'0 0.0
2017-Oct-17 11:01N 68°56' E 033°02'0 0.0
2017-Oct-17 10:31N 68°56' E 033°02'0 0.0
2017-Oct-17 10:01N 68°56' E 033°02'0 0.0
2017-Oct-17 09:31N 68°56' E 033°02'0 0.0
2017-Oct-17 09:01N 68°56' E 033°02'0 0.0
2017-Oct-17 08:31N 68°56' E 033°02'0 0.0
2017-Oct-17 08:01N 68°56' E 033°02'0 0.0
2017-Oct-17 07:31N 68°56' E 033°02'0 0.0
2017-Oct-17 07:01N 68°56' E 033°02'0 0.0
2017-Oct-17 06:31N 68°56' E 033°02'0 0.0
2017-Oct-17 06:01N 68°56' E 033°02'0 0.0
2017-Oct-17 05:31N 68°56' E 033°02'0 0.0
2017-Oct-17 05:01N 68°56' E 033°02'0 0.0
2017-Oct-17 04:30N 68°56' E 033°02'0 0.0
2017-Oct-17 04:01N 68°56' E 033°02'0 0.0
2017-Oct-17 03:31N 68°56' E 033°02'0 0.0
2017-Oct-17 03:01N 68°56' E 033°02'0 0.0
2017-Oct-17 02:31N 68°56' E 033°02'0 0.0
2017-Oct-17 02:01N 68°56' E 033°02'0 0.0
2017-Oct-17 01:31N 68°56' E 033°02'0 0.0
2017-Oct-17 01:01N 68°56' E 033°02'0 0.0
2017-Oct-17 00:31N 68°56' E 033°02'0 0.0
2017-Oct-17 00:00N 68°56' E 033°02'0 0.0
2017-Oct-16 23:31N 68°56' E 033°02'0 0.0
2017-Oct-16 23:01N 68°56' E 033°02'0 0.0
2017-Oct-16 22:31N 68°56' E 033°02'0 0.0
2017-Oct-16 22:01N 68°56' E 033°02'0 0.0
2017-Oct-16 21:31N 68°56' E 033°02'0 0.0
2017-Oct-16 21:01N 68°56' E 033°02'0 0.0
2017-Oct-16 20:30N 68°56' E 033°02'0 0.0
2017-Oct-16 20:01N 68°56' E 033°02'0 0.0
2017-Oct-16 19:30N 68°56' E 033°02'0 0.0
2017-Oct-16 19:01N 68°56' E 033°02'0 0.0
2017-Oct-16 18:31N 68°56' E 033°02'0 0.0
2017-Oct-16 18:00N 68°56' E 033°02'0 0.0
2017-Oct-16 17:31N 68°56' E 033°02'0 0.0
2017-Oct-16 17:01N 68°56' E 033°02'0 0.0
2017-Oct-16 16:31N 68°56' E 033°02'0 0.0
2017-Oct-16 16:01N 68°56' E 033°02'0 0.0
2017-Oct-16 15:31N 68°56' E 033°02'0 0.0
2017-Oct-16 15:01N 68°56' E 033°02'0 0.0
2017-Oct-16 14:31N 68°56' E 033°02'0 0.0
2017-Oct-16 13:30N 68°56' E 033°02'0 0.0
2017-Oct-16 13:01N 68°56' E 033°02'0 0.0
2017-Oct-16 12:31N 68°56' E 033°02'0 0.0
2017-Oct-16 12:01N 68°56' E 033°02'0 0.0
2017-Oct-16 11:30N 68°56' E 033°02'0 0.0
2017-Oct-16 11:00N 68°56' E 033°02'0 0.0
2017-Oct-16 10:31N 68°56' E 033°02'0 0.0
2017-Oct-16 10:01N 68°56' E 033°02'0 0.0
2017-Oct-16 09:30N 68°56' E 033°02'0 0.0
2017-Oct-16 09:01N 68°56' E 033°02'0 0.0
2017-Oct-16 08:31N 68°56' E 033°02'0 0.0
2017-Oct-16 08:01N 68°56' E 033°02'0 0.0
2017-Oct-16 07:31N 68°56' E 033°02'0 0.0
2017-Oct-16 07:01N 68°56' E 033°02'0 0.0
2017-Oct-16 06:31N 68°56' E 033°02'0 0.0
2017-Oct-16 06:01N 68°56' E 033°02'0 0.2
2017-Oct-16 05:31N 68°56' E 033°01'2 4.6
2017-Oct-16 05:01N 68°59' E 033°02'3 5.6
2017-Oct-16 04:31N 69°02' E 033°03'79 9.0
2017-Oct-15 19:45N 70°17' E 031°54'312.1
2017-Oct-15 19:30N 70°19' E 031°47'612.1
2017-Oct-15 19:00N 70°22' E 031°32'611.4
2017-Oct-15 18:30N 70°25' E 031°18'611.2
2017-Oct-15 18:00N 70°28' E 031°05'611.4
2017-Oct-15 17:30N 70°32' E 030°52'611.4
2017-Oct-15 17:00N 70°36' E 030°39'611.3
2017-Oct-15 16:31N 70°40' E 030°26'510.8
2017-Oct-15 16:00N 70°43' E 030°13'611.2
2017-Oct-15 15:30N 70°46' E 029°58'611.4
2017-Oct-15 15:00N 70°49' E 029°44'1211.7
2017-Oct-15 14:01N 70°55' E 029°15'611.4
2017-Oct-15 13:30N 70°58' E 028°59'611.4
2017-Oct-15 13:00N 71°01' E 028°44'611.5
2017-Oct-15 12:30N 71°04' E 028°30'611.9
2017-Oct-15 12:00N 71°08' E 028°14'611.9
2017-Oct-15 11:30N 71°08' E 027°56'612.4
2017-Oct-15 11:00N 71°09' E 027°37'612.6
2017-Oct-15 10:30N 71°07' E 027°18'612.3
2017-Oct-15 10:01N 71°05' E 027°01'611.8
2017-Oct-15 09:30N 71°03' E 026°44'611.8
2017-Oct-15 09:00N 71°00' E 026°27'611.8
2017-Oct-15 08:30N 70°58' E 026°10'611.9
2017-Oct-15 08:00N 70°57' E 025°52'612.1
2017-Oct-15 07:30N 70°56' E 025°34'612.3
2017-Oct-15 07:00N 70°59' E 025°19'611.3
2017-Oct-15 06:30N 70°59' E 025°02'511.0
2017-Oct-15 06:00N 71°01' E 024°45'510.4
2017-Oct-15 05:30N 71°01' E 024°29'612.1
2017-Oct-15 05:00N 70°56' E 024°16'612.1
2017-Oct-15 04:30N 70°52' E 024°02'612.1
2017-Oct-15 04:00N 70°48' E 023°48'612.4
2017-Oct-15 03:30N 70°44' E 023°35'612.4
2017-Oct-15 03:01N 70°40' E 023°23'712.8
2017-Oct-15 02:30N 70°35' E 023°09'612.6
2017-Oct-15 02:00N 70°31' E 022°55'611.8
2017-Oct-15 01:30N 70°28' E 022°39'511.2
2017-Oct-15 01:01N 70°27' E 022°23'611.6
2017-Oct-15 00:31N 70°26' E 022°05'611.8
2017-Oct-15 00:01N 70°25' E 021°49'611.6
2017-Oct-14 23:30N 70°21' E 021°34'611.9
2017-Oct-14 23:01N 70°17' E 021°21'712.0
2017-Oct-14 22:27N 70°13' E 021°07'612.3
2017-Oct-14 21:57N 70°07' E 021°01'512.1
2017-Oct-14 21:31N 70°03' E 020°50'612.5
2017-Oct-14 21:01N 70°01' E 020°32'612.2
2017-Oct-14 20:30N 69°59' E 020°15'612.3
2017-Oct-14 20:00N 69°55' E 020°01'612.3
2017-Oct-14 19:30N 69°51' E 019°47'612.4
2017-Oct-14 19:01N 69°49' E 019°31'612.5
2017-Oct-14 18:30N 69°47' E 019°14'611.3
2017-Oct-14 18:00N 69°42' E 019°03'4 7.1
2017-Oct-14 17:30N 69°39' E 018°58'0 0.0
2017-Oct-14 17:01N 69°39' E 018°58'0 0.0
2017-Oct-14 16:31N 69°39' E 018°58'0 0.0
2017-Oct-14 16:00N 69°39' E 018°58'0 0.0
2017-Oct-14 15:30N 69°39' E 018°58'0 0.0
2017-Oct-14 15:01N 69°39' E 018°58'0 0.0
2017-Oct-14 14:31N 69°39' E 018°58'0 0.0
2017-Oct-14 14:00N 69°39' E 018°58'0 0.0
2017-Oct-14 13:30N 69°39' E 018°58'0 0.6
2017-Oct-14 13:00N 69°39' E 018°59'2 4.0
2017-Oct-14 12:30N 69°38' E 018°57'0 0.0
2017-Oct-14 12:00N 69°38' E 018°57'0 0.0
2017-Oct-14 11:30N 69°38' E 018°57'0 0.0
2017-Oct-14 11:00N 69°38' E 018°57'0 0.0
2017-Oct-14 10:30N 69°38' E 018°57'0 0.0
2017-Oct-14 10:00N 69°38' E 018°57'0 0.0
2017-Oct-14 09:31N 69°38' E 018°57'0 0.0
2017-Oct-14 09:00N 69°38' E 018°57'0 0.0
2017-Oct-14 08:30N 69°38' E 018°57'0 0.0
2017-Oct-14 08:01N 69°38' E 018°57'0 0.1
2017-Oct-14 07:30N 69°38' E 018°57'0 0.0
2017-Oct-14 07:00N 69°38' E 018°57'0 0.2
2017-Oct-14 06:30N 69°38' E 018°57'4 8.2
2017-Oct-14 05:59N 69°34' E 018°49'713.7
2017-Oct-14 05:30N 69°32' E 018°31'612.9
2017-Oct-14 05:00N 69°29' E 018°14'611.4
2017-Oct-14 04:30N 69°24' E 018°07'611.9
2017-Oct-14 04:00N 69°19' E 017°59'612.4
2017-Oct-14 03:30N 69°13' E 017°58'5 9.5
2017-Oct-14 03:00N 69°09' E 017°51'612.9
2017-Oct-14 02:30N 69°07' E 017°33'612.5
2017-Oct-14 01:59N 69°03' E 017°19'612.2
2017-Oct-14 01:30N 68°59' E 017°07'713.1
2017-Oct-14 01:00N 68°56' E 016°51'612.9
2017-Oct-14 00:30N 68°52' E 016°36'611.5
2017-Oct-14 00:00N 68°54' E 016°21'611.7
2017-Oct-13 23:30N 68°57' E 016°07'611.9
2017-Oct-13 23:00N 68°59' E 015°51'510.2
2017-Oct-13 22:31N 68°58' E 015°37'612.5
2017-Oct-13 22:00N 68°52' E 015°30'712.8
2017-Oct-13 21:30N 68°45' E 015°25'3 7.0
2017-Oct-13 21:00N 68°42' E 015°25'0 0.0
2017-Oct-13 20:30N 68°42' E 015°25'0 0.0
2017-Oct-13 20:00N 68°42' E 015°25'0 0.0
2017-Oct-13 19:30N 68°42' E 015°25'3 6.0
2017-Oct-13 19:00N 68°39' E 015°24'612.7
2017-Oct-13 18:30N 68°35' E 015°11'611.4
2017-Oct-13 18:00N 68°29' E 015°13'612.2
2017-Oct-13 17:30N 68°24' E 015°06'612.2
2017-Oct-13 17:00N 68°18' E 014°58'612.2
2017-Oct-13 16:30N 68°12' E 014°54'611.9
2017-Oct-13 16:00N 68°07' E 014°47'612.1
2017-Oct-13 15:30N 68°02' E 014°39'612.5
2017-Oct-13 15:00N 67°57' E 014°30'612.5
2017-Oct-13 14:30N 67°51' E 014°21'612.3
2017-Oct-13 14:00N 67°46' E 014°14'612.6
2017-Oct-13 13:30N 67°40' E 014°16'612.6
2017-Oct-13 13:00N 67°33' E 014°20'612.8
2017-Oct-13 12:30N 67°27' E 014°24'611.6
2017-Oct-13 12:00N 67°22' E 014°23'612.7
2017-Oct-13 11:30N 67°16' E 014°13'612.7
2017-Oct-13 11:00N 67°11' E 014°05'612.6
2017-Oct-13 10:30N 67°05' E 013°57'612.2
2017-Oct-13 10:00N 67°01' E 013°45'612.2
2017-Oct-13 09:30N 66°58' E 013°32'510.8
2017-Oct-13 09:00N 66°53' E 013°33'4 5.2
2017-Oct-13 08:17N 66°52' E 013°42'21 3.1
2017-Oct-13 01:17N 66°37' E 013°04'810.6
2017-Oct-13 00:31N 66°29' E 012°59'012.7
2017-Oct-13 00:29N 66°28' E 012°59'612.5
2017-Oct-13 00:00N 66°22' E 012°58'912.5
2017-Oct-12 23:18N 66°14' E 012°53'412.5
2017-Oct-12 22:57N 66°10' E 012°50'1112.5
2017-Oct-12 22:07N 66°02' E 012°34'212.8
2017-Oct-12 21:57N 65°60' E 012°30'4411.7
2017-Oct-12 18:09N 65°17' E 011°58'212.4
2017-Oct-12 18:00N 65°16' E 011°57'1112.5
2017-Oct-12 17:09N 65°06' E 011°48'212.5
2017-Oct-12 17:00N 65°04' E 011°46'611.8
2017-Oct-12 16:30N 64°60' E 011°37'612.1
2017-Oct-12 16:00N 64°56' E 011°26'612.5
2017-Oct-12 15:30N 64°52' E 011°15'612.6
2017-Oct-12 15:00N 64°47' E 011°04'612.3
2017-Oct-12 14:30N 64°43' E 010°53'612.2
2017-Oct-12 14:00N 64°39' E 010°43'611.9
2017-Oct-12 13:30N 64°35' E 010°34'611.5
2017-Oct-12 13:00N 64°31' E 010°24'612.1
2017-Oct-12 12:30N 64°26' E 010°14'612.3
2017-Oct-12 12:00N 64°22' E 010°04'612.7
2017-Oct-12 11:30N 64°17' E 009°54'612.8
2017-Oct-12 11:00N 64°13' E 009°44'612.1
2017-Oct-12 10:30N 64°07' E 009°43'612.3
2017-Oct-12 10:00N 64°01' E 009°46'612.3
2017-Oct-12 09:29N 63°54' E 009°46'612.1
2017-Oct-12 09:00N 63°50' E 009°37'1 2.0
2017-Oct-12 08:30N 63°49' E 009°38'0 0.0
2017-Oct-12 08:00N 63°49' E 009°38'0 0.0
2017-Oct-12 07:30N 63°49' E 009°38'0 0.4
2017-Oct-12 07:00N 63°49' E 009°38'2 4.3
2017-Oct-12 06:30N 63°48' E 009°34'4 8.2
2017-Oct-12 06:00N 63°44' E 009°36'0 0.0
2017-Oct-12 05:30N 63°44' E 009°36'0 0.0
2017-Oct-12 05:01N 63°44' E 009°36'0 0.0
2017-Oct-12 04:30N 63°44' E 009°36'1 1.1
2017-Oct-12 04:00N 63°44' E 009°35'1 2.1
2017-Oct-12 03:30N 63°44' E 009°33'2 4.3
2017-Oct-12 03:00N 63°42' E 009°31'2 4.2
2017-Oct-12 02:31N 63°40' E 009°29'3 5.4
2017-Oct-12 02:00N 63°38' E 009°28'4 8.7
2017-Oct-12 01:30N 63°34' E 009°22'510.1
2017-Oct-12 01:00N 63°32' E 009°12'510.6
2017-Oct-12 00:30N 63°29' E 009°02'5 9.8
2017-Oct-12 00:00N 63°27' E 008°52'5 9.7
2017-Oct-11 23:30N 63°26' E 008°42'5 9.8
2017-Oct-11 23:00N 63°24' E 008°31'5 9.6
2017-Oct-11 22:30N 63°21' E 008°23'510.3
2017-Oct-11 22:00N 63°18' E 008°14'510.2
2017-Oct-11 21:30N 63°15' E 008°04'5 9.7
2017-Oct-11 21:00N 63°13' E 007°55'5 9.7
2017-Oct-11 20:30N 63°11' E 007°45'5 9.4
2017-Oct-11 20:00N 63°08' E 007°37'510.2
2017-Oct-11 19:30N 63°05' E 007°28'612.5
2017-Oct-11 19:00N 63°03' E 007°15'612.4
2017-Oct-11 18:29N 63°00' E 007°02'612.4
2017-Oct-11 18:00N 62°57' E 006°50'613.0
2017-Oct-11 17:30N 62°52' E 006°42'612.9
2017-Oct-11 17:00N 62°46' E 006°34'84 4.9
2017-Oct-11 00:00N 61°35' E 005°00'0 0.0
2017-Oct-10 23:29N 61°35' E 005°00'0 0.0
2017-Oct-10 23:00N 61°35' E 005°00'0 0.0
2017-Oct-10 22:29N 61°35' E 005°00'1 2.7
2017-Oct-10 22:00N 61°34' E 004°58'611.2
2017-Oct-10 21:30N 61°29' E 004°59'611.4
2017-Oct-10 21:00N 61°23' E 005°01'510.0
2017-Oct-10 20:30N 61°18' E 005°01'5 9.6
2017-Oct-10 20:00N 61°14' E 004°56'611.4
2017-Oct-10 19:29N 61°09' E 005°01'611.5
2017-Oct-10 19:00N 61°03' E 004°58'611.9
2017-Oct-10 18:30N 60°60' E 004°48'611.2
2017-Oct-10 18:00N 60°54' E 004°46'611.4
2017-Oct-10 17:30N 60°49' E 004°44'611.9
2017-Oct-10 17:00N 60°43' E 004°48'612.4
2017-Oct-10 16:30N 60°37' E 004°53'612.8
2017-Oct-10 16:00N 60°31' E 004°57'712.8
2017-Oct-10 15:30N 60°25' E 005°03'510.8
2017-Oct-10 15:00N 60°21' E 005°10'1110.9
2017-Oct-10 13:59N 60°10' E 005°14'  

Dump ship's entire track history